sensor_id;sensor_type;location;lat;lon;timestamp;P1;durP1;ratioP1;P2;durP2;ratioP2
4961;SDS011;2496;52.468;13.342;2023-07-31T00:01:11;4.00;;;2.33;;
4961;SDS011;2496;52.468;13.342;2023-07-31T00:03:38;4.13;;;1.93;;
4961;SDS011;2496;52.468;13.342;2023-07-31T00:06:05;5.17;;;2.43;;
4961;SDS011;2496;52.468;13.342;2023-07-31T00:08:34;6.87;;;2.43;;
4961;SDS011;2496;52.468;13.342;2023-07-31T00:11:01;6.10;;;2.70;;
4961;SDS011;2496;52.468;13.342;2023-07-31T00:13:28;8.87;;;2.50;;
4961;SDS011;2496;52.468;13.342;2023-07-31T00:15:54;4.90;;;2.40;;
4961;SDS011;2496;52.468;13.342;2023-07-31T00:18:21;6.03;;;3.07;;
4961;SDS011;2496;52.468;13.342;2023-07-31T00:20:48;6.00;;;2.83;;
4961;SDS011;2496;52.468;13.342;2023-07-31T00:23:15;3.90;;;2.10;;
4961;SDS011;2496;52.468;13.342;2023-07-31T00:25:44;4.23;;;1.90;;
4961;SDS011;2496;52.468;13.342;2023-07-31T00:28:11;9.10;;;2.80;;
4961;SDS011;2496;52.468;13.342;2023-07-31T00:30:38;3.97;;;2.73;;
4961;SDS011;2496;52.468;13.342;2023-07-31T00:33:05;7.50;;;2.67;;
4961;SDS011;2496;52.468;13.342;2023-07-31T00:35:32;4.40;;;2.50;;
4961;SDS011;2496;52.468;13.342;2023-07-31T00:37:59;3.20;;;2.17;;
4961;SDS011;2496;52.468;13.342;2023-07-31T00:40:26;4.87;;;2.30;;
4961;SDS011;2496;52.468;13.342;2023-07-31T00:42:54;4.70;;;2.53;;
4961;SDS011;2496;52.468;13.342;2023-07-31T00:45:21;4.20;;;2.60;;
4961;SDS011;2496;52.468;13.342;2023-07-31T00:47:52;4.70;;;2.67;;
4961;SDS011;2496;52.468;13.342;2023-07-31T00:50:19;4.03;;;2.60;;
4961;SDS011;2496;52.468;13.342;2023-07-31T00:52:46;4.83;;;3.20;;
4961;SDS011;2496;52.468;13.342;2023-07-31T00:55:13;9.87;;;3.40;;
4961;SDS011;2496;52.468;13.342;2023-07-31T00:57:40;5.93;;;2.80;;
4961;SDS011;2496;52.468;13.342;2023-07-31T01:00:10;4.70;;;2.47;;
4961;SDS011;2496;52.468;13.342;2023-07-31T01:02:37;6.57;;;2.73;;
4961;SDS011;2496;52.468;13.342;2023-07-31T01:05:04;4.50;;;2.33;;
4961;SDS011;2496;52.468;13.342;2023-07-31T01:07:34;5.17;;;3.00;;
4961;SDS011;2496;52.468;13.342;2023-07-31T01:10:08;2.30;;;2.03;;
4961;SDS011;2496;52.468;13.342;2023-07-31T01:12:42;4.03;;;2.47;;
4961;SDS011;2496;52.468;13.342;2023-07-31T01:15:12;21.60;;;2.90;;
4961;SDS011;2496;52.468;13.342;2023-07-31T01:17:42;4.97;;;2.50;;
4961;SDS011;2496;52.468;13.342;2023-07-31T01:20:10;3.40;;;2.80;;
4961;SDS011;2496;52.468;13.342;2023-07-31T01:22:49;10.10;;;3.10;;
4961;SDS011;2496;52.468;13.342;2023-07-31T01:25:36;7.50;;;2.83;;
4961;SDS011;2496;52.468;13.342;2023-07-31T01:28:27;6.00;;;2.60;;
4961;SDS011;2496;52.468;13.342;2023-07-31T01:30:59;4.60;;;2.97;;
4961;SDS011;2496;52.468;13.342;2023-07-31T01:33:28;5.20;;;2.90;;
4961;SDS011;2496;52.468;13.342;2023-07-31T01:35:56;6.63;;;3.67;;
4961;SDS011;2496;52.468;13.342;2023-07-31T01:38:23;5.00;;;2.90;;
4961;SDS011;2496;52.468;13.342;2023-07-31T01:40:51;9.90;;;3.00;;
4961;SDS011;2496;52.468;13.342;2023-07-31T01:43:20;7.83;;;2.90;;
4961;SDS011;2496;52.468;13.342;2023-07-31T01:45:47;5.40;;;3.10;;
4961;SDS011;2496;52.468;13.342;2023-07-31T01:48:14;5.20;;;3.30;;
4961;SDS011;2496;52.468;13.342;2023-07-31T01:50:41;3.10;;;2.73;;
4961;SDS011;2496;52.468;13.342;2023-07-31T01:53:08;5.43;;;3.10;;
4961;SDS011;2496;52.468;13.342;2023-07-31T01:55:34;5.97;;;3.27;;
4961;SDS011;2496;52.468;13.342;2023-07-31T01:58:01;4.13;;;2.73;;
4961;SDS011;2496;52.468;13.342;2023-07-31T02:00:30;5.57;;;3.20;;
4961;SDS011;2496;52.468;13.342;2023-07-31T02:02:56;3.43;;;2.87;;
4961;SDS011;2496;52.468;13.342;2023-07-31T02:05:23;6.37;;;3.27;;
4961;SDS011;2496;52.468;13.342;2023-07-31T02:07:50;7.93;;;3.13;;
4961;SDS011;2496;52.468;13.342;2023-07-31T02:10:17;7.17;;;3.00;;
4961;SDS011;2496;52.468;13.342;2023-07-31T02:12:44;8.57;;;3.43;;
4961;SDS011;2496;52.468;13.342;2023-07-31T02:15:11;6.17;;;3.03;;
4961;SDS011;2496;52.468;13.342;2023-07-31T02:17:39;7.37;;;3.40;;
4961;SDS011;2496;52.468;13.342;2023-07-31T02:20:06;7.17;;;3.30;;
4961;SDS011;2496;52.468;13.342;2023-07-31T02:22:34;6.50;;;3.00;;
4961;SDS011;2496;52.468;13.342;2023-07-31T02:25:01;8.83;;;3.47;;
4961;SDS011;2496;52.468;13.342;2023-07-31T02:27:28;3.57;;;2.70;;
4961;SDS011;2496;52.468;13.342;2023-07-31T02:29:55;14.40;;;3.83;;
4961;SDS011;2496;52.468;13.342;2023-07-31T02:32:24;7.80;;;3.90;;
4961;SDS011;2496;52.468;13.342;2023-07-31T02:34:52;9.70;;;3.47;;
4961;SDS011;2496;52.468;13.342;2023-07-31T02:37:19;4.77;;;2.90;;
4961;SDS011;2496;52.468;13.342;2023-07-31T02:39:46;3.30;;;3.00;;
4961;SDS011;2496;52.468;13.342;2023-07-31T02:42:13;7.30;;;3.37;;
4961;SDS011;2496;52.468;13.342;2023-07-31T02:44:41;6.50;;;3.57;;
4961;SDS011;2496;52.468;13.342;2023-07-31T02:47:08;5.00;;;3.73;;
4961;SDS011;2496;52.468;13.342;2023-07-31T02:49:35;7.10;;;3.40;;
4961;SDS011;2496;52.468;13.342;2023-07-31T02:52:03;3.60;;;3.23;;
4961;SDS011;2496;52.468;13.342;2023-07-31T02:54:31;10.67;;;3.63;;
4961;SDS011;2496;52.468;13.342;2023-07-31T02:56:59;8.30;;;3.70;;
4961;SDS011;2496;52.468;13.342;2023-07-31T02:59:27;4.70;;;3.57;;
4961;SDS011;2496;52.468;13.342;2023-07-31T03:01:54;10.20;;;3.50;;
4961;SDS011;2496;52.468;13.342;2023-07-31T03:04:21;4.53;;;3.23;;
4961;SDS011;2496;52.468;13.342;2023-07-31T03:06:48;5.63;;;4.47;;
4961;SDS011;2496;52.468;13.342;2023-07-31T03:09:19;6.43;;;3.80;;
4961;SDS011;2496;52.468;13.342;2023-07-31T03:11:47;5.87;;;4.00;;
4961;SDS011;2496;52.468;13.342;2023-07-31T03:14:14;7.43;;;4.73;;
4961;SDS011;2496;52.468;13.342;2023-07-31T03:16:41;8.43;;;4.40;;
4961;SDS011;2496;52.468;13.342;2023-07-31T03:19:08;8.77;;;4.20;;
4961;SDS011;2496;52.468;13.342;2023-07-31T03:21:36;7.33;;;4.27;;
4961;SDS011;2496;52.468;13.342;2023-07-31T03:24:04;5.20;;;4.00;;
4961;SDS011;2496;52.468;13.342;2023-07-31T03:26:32;11.80;;;4.47;;
4961;SDS011;2496;52.468;13.342;2023-07-31T03:29:00;10.07;;;5.43;;
4961;SDS011;2496;52.468;13.342;2023-07-31T03:31:27;6.27;;;4.17;;
4961;SDS011;2496;52.468;13.342;2023-07-31T03:33:55;6.53;;;4.37;;
4961;SDS011;2496;52.468;13.342;2023-07-31T03:36:22;7.00;;;4.57;;
4961;SDS011;2496;52.468;13.342;2023-07-31T03:38:50;7.43;;;4.40;;
4961;SDS011;2496;52.468;13.342;2023-07-31T03:41:17;6.30;;;4.57;;
4961;SDS011;2496;52.468;13.342;2023-07-31T03:43:50;6.83;;;4.10;;
4961;SDS011;2496;52.468;13.342;2023-07-31T03:46:18;8.10;;;4.20;;
4961;SDS011;2496;52.468;13.342;2023-07-31T03:48:45;7.20;;;4.60;;
4961;SDS011;2496;52.468;13.342;2023-07-31T03:51:13;7.50;;;4.37;;
4961;SDS011;2496;52.468;13.342;2023-07-31T03:53:44;6.43;;;3.90;;
4961;SDS011;2496;52.468;13.342;2023-07-31T03:56:11;5.33;;;4.07;;
4961;SDS011;2496;52.468;13.342;2023-07-31T03:58:38;9.20;;;4.70;;
4961;SDS011;2496;52.468;13.342;2023-07-31T04:01:06;16.70;;;5.13;;
4961;SDS011;2496;52.468;13.342;2023-07-31T04:03:34;4.93;;;4.43;;
4961;SDS011;2496;52.468;13.342;2023-07-31T04:06:01;6.07;;;4.70;;
4961;SDS011;2496;52.468;13.342;2023-07-31T04:08:28;8.87;;;4.30;;
4961;SDS011;2496;52.468;13.342;2023-07-31T04:10:55;5.73;;;4.40;;
4961;SDS011;2496;52.468;13.342;2023-07-31T04:13:22;8.07;;;4.67;;
4961;SDS011;2496;52.468;13.342;2023-07-31T04:15:49;6.67;;;3.70;;
4961;SDS011;2496;52.468;13.342;2023-07-31T04:18:18;10.33;;;5.23;;
4961;SDS011;2496;52.468;13.342;2023-07-31T04:20:46;7.67;;;4.20;;
4961;SDS011;2496;52.468;13.342;2023-07-31T04:23:13;9.67;;;5.17;;
4961;SDS011;2496;52.468;13.342;2023-07-31T04:25:40;11.37;;;4.80;;
4961;SDS011;2496;52.468;13.342;2023-07-31T04:28:07;7.40;;;4.47;;
4961;SDS011;2496;52.468;13.342;2023-07-31T04:30:34;4.83;;;4.13;;
4961;SDS011;2496;52.468;13.342;2023-07-31T04:33:01;9.20;;;4.60;;
4961;SDS011;2496;52.468;13.342;2023-07-31T04:35:30;7.23;;;4.30;;
4961;SDS011;2496;52.468;13.342;2023-07-31T04:37:57;6.80;;;5.27;;
4961;SDS011;2496;52.468;13.342;2023-07-31T04:40:24;10.90;;;4.57;;
4961;SDS011;2496;52.468;13.342;2023-07-31T04:42:51;10.20;;;4.47;;
4961;SDS011;2496;52.468;13.342;2023-07-31T04:45:18;6.63;;;4.60;;
4961;SDS011;2496;52.468;13.342;2023-07-31T04:47:45;6.13;;;4.47;;
4961;SDS011;2496;52.468;13.342;2023-07-31T04:50:12;7.57;;;4.17;;
4961;SDS011;2496;52.468;13.342;2023-07-31T04:52:41;8.53;;;4.77;;
4961;SDS011;2496;52.468;13.342;2023-07-31T04:55:09;5.97;;;4.40;;
4961;SDS011;2496;52.468;13.342;2023-07-31T04:57:36;7.70;;;4.07;;
4961;SDS011;2496;52.468;13.342;2023-07-31T05:00:03;6.90;;;5.40;;
4961;SDS011;2496;52.468;13.342;2023-07-31T05:02:31;10.37;;;6.27;;
4961;SDS011;2496;52.468;13.342;2023-07-31T05:04:59;11.00;;;4.90;;
4961;SDS011;2496;52.468;13.342;2023-07-31T05:07:26;5.70;;;4.87;;
4961;SDS011;2496;52.468;13.342;2023-07-31T05:09:54;7.83;;;4.90;;
4961;SDS011;2496;52.468;13.342;2023-07-31T05:12:21;16.90;;;5.00;;
4961;SDS011;2496;52.468;13.342;2023-07-31T05:14:49;6.83;;;5.17;;
4961;SDS011;2496;52.468;13.342;2023-07-31T05:17:16;8.37;;;4.70;;
4961;SDS011;2496;52.468;13.342;2023-07-31T05:19:43;9.43;;;4.30;;
4961;SDS011;2496;52.468;13.342;2023-07-31T05:22:10;7.87;;;5.13;;
4961;SDS011;2496;52.468;13.342;2023-07-31T05:24:37;9.60;;;4.93;;
4961;SDS011;2496;52.468;13.342;2023-07-31T05:27:06;10.10;;;5.00;;
4961;SDS011;2496;52.468;13.342;2023-07-31T05:29:35;10.63;;;5.60;;
4961;SDS011;2496;52.468;13.342;2023-07-31T05:32:02;8.50;;;4.47;;
4961;SDS011;2496;52.468;13.342;2023-07-31T05:34:30;11.10;;;5.63;;
4961;SDS011;2496;52.468;13.342;2023-07-31T05:36:58;9.53;;;5.90;;
4961;SDS011;2496;52.468;13.342;2023-07-31T05:39:25;11.03;;;5.23;;
4961;SDS011;2496;52.468;13.342;2023-07-31T05:41:52;6.30;;;4.67;;
4961;SDS011;2496;52.468;13.342;2023-07-31T05:44:22;10.30;;;3.90;;
4961;SDS011;2496;52.468;13.342;2023-07-31T05:46:49;6.73;;;4.07;;
4961;SDS011;2496;52.468;13.342;2023-07-31T05:49:16;6.70;;;4.10;;
4961;SDS011;2496;52.468;13.342;2023-07-31T05:51:43;8.43;;;3.93;;
4961;SDS011;2496;52.468;13.342;2023-07-31T05:54:10;7.30;;;3.87;;
4961;SDS011;2496;52.468;13.342;2023-07-31T05:56:37;6.07;;;3.90;;
4961;SDS011;2496;52.468;13.342;2023-07-31T05:59:04;7.23;;;4.00;;
4961;SDS011;2496;52.468;13.342;2023-07-31T06:01:32;8.63;;;3.83;;
4961;SDS011;2496;52.468;13.342;2023-07-31T06:03:59;4.33;;;3.50;;
4961;SDS011;2496;52.468;13.342;2023-07-31T06:06:27;5.03;;;3.73;;
4961;SDS011;2496;52.468;13.342;2023-07-31T06:08:54;6.50;;;3.27;;
4961;SDS011;2496;52.468;13.342;2023-07-31T06:11:21;5.47;;;3.33;;
4961;SDS011;2496;52.468;13.342;2023-07-31T06:13:49;6.67;;;3.40;;
4961;SDS011;2496;52.468;13.342;2023-07-31T06:16:16;9.83;;;3.60;;
4961;SDS011;2496;52.468;13.342;2023-07-31T06:18:44;4.20;;;3.43;;
4961;SDS011;2496;52.468;13.342;2023-07-31T06:21:11;8.63;;;3.03;;
4961;SDS011;2496;52.468;13.342;2023-07-31T06:23:38;8.73;;;3.43;;
4961;SDS011;2496;52.468;13.342;2023-07-31T06:26:05;5.40;;;3.50;;
4961;SDS011;2496;52.468;13.342;2023-07-31T06:28:32;6.50;;;3.70;;
4961;SDS011;2496;52.468;13.342;2023-07-31T06:30:59;9.73;;;3.63;;
4961;SDS011;2496;52.468;13.342;2023-07-31T06:33:26;6.83;;;3.87;;
4961;SDS011;2496;52.468;13.342;2023-07-31T06:35:54;6.77;;;3.70;;
4961;SDS011;2496;52.468;13.342;2023-07-31T06:38:22;5.53;;;4.00;;
4961;SDS011;2496;52.468;13.342;2023-07-31T06:40:50;6.40;;;3.70;;
4961;SDS011;2496;52.468;13.342;2023-07-31T06:43:17;7.20;;;3.70;;
4961;SDS011;2496;52.468;13.342;2023-07-31T06:45:44;5.67;;;3.70;;
4961;SDS011;2496;52.468;13.342;2023-07-31T06:48:15;4.30;;;3.13;;
4961;SDS011;2496;52.468;13.342;2023-07-31T06:50:42;4.63;;;3.47;;
4961;SDS011;2496;52.468;13.342;2023-07-31T06:53:10;6.10;;;3.43;;
4961;SDS011;2496;52.468;13.342;2023-07-31T06:55:37;18.43;;;4.73;;
4961;SDS011;2496;52.468;13.342;2023-07-31T06:58:04;12.10;;;4.00;;
4961;SDS011;2496;52.468;13.342;2023-07-31T07:00:31;3.87;;;2.60;;
4961;SDS011;2496;52.468;13.342;2023-07-31T07:02:59;12.07;;;3.80;;
4961;SDS011;2496;52.468;13.342;2023-07-31T07:05:26;8.43;;;3.37;;
4961;SDS011;2496;52.468;13.342;2023-07-31T07:07:53;4.10;;;3.37;;
4961;SDS011;2496;52.468;13.342;2023-07-31T07:10:21;4.67;;;3.33;;
4961;SDS011;2496;52.468;13.342;2023-07-31T07:12:48;6.63;;;3.93;;
4961;SDS011;2496;52.468;13.342;2023-07-31T07:15:15;7.70;;;3.40;;
4961;SDS011;2496;52.468;13.342;2023-07-31T07:17:42;5.67;;;2.90;;
4961;SDS011;2496;52.468;13.342;2023-07-31T07:20:09;9.83;;;3.57;;
4961;SDS011;2496;52.468;13.342;2023-07-31T07:22:37;4.10;;;2.77;;
4961;SDS011;2496;52.468;13.342;2023-07-31T07:25:05;7.40;;;3.63;;
4961;SDS011;2496;52.468;13.342;2023-07-31T07:27:34;8.30;;;3.43;;
4961;SDS011;2496;52.468;13.342;2023-07-31T07:30:01;6.53;;;3.83;;
4961;SDS011;2496;52.468;13.342;2023-07-31T07:32:28;4.00;;;3.60;;
4961;SDS011;2496;52.468;13.342;2023-07-31T07:34:55;6.70;;;3.30;;
4961;SDS011;2496;52.468;13.342;2023-07-31T07:37:22;5.33;;;3.17;;
4961;SDS011;2496;52.468;13.342;2023-07-31T07:39:49;6.30;;;3.70;;
4961;SDS011;2496;52.468;13.342;2023-07-31T07:42:16;6.50;;;2.93;;
4961;SDS011;2496;52.468;13.342;2023-07-31T07:44:45;7.57;;;3.57;;
4961;SDS011;2496;52.468;13.342;2023-07-31T07:47:12;12.50;;;4.27;;
4961;SDS011;2496;52.468;13.342;2023-07-31T07:49:39;4.63;;;3.00;;
4961;SDS011;2496;52.468;13.342;2023-07-31T07:52:06;8.23;;;2.93;;
4961;SDS011;2496;52.468;13.342;2023-07-31T07:54:33;4.63;;;2.87;;
4961;SDS011;2496;52.468;13.342;2023-07-31T07:57:00;6.63;;;3.57;;
4961;SDS011;2496;52.468;13.342;2023-07-31T07:59:28;5.50;;;3.10;;
4961;SDS011;2496;52.468;13.342;2023-07-31T08:01:56;8.43;;;3.27;;
4961;SDS011;2496;52.468;13.342;2023-07-31T08:04:23;7.13;;;3.87;;
4961;SDS011;2496;52.468;13.342;2023-07-31T08:06:50;4.80;;;2.70;;
4961;SDS011;2496;52.468;13.342;2023-07-31T08:09:17;4.73;;;2.50;;
4961;SDS011;2496;52.468;13.342;2023-07-31T08:11:44;4.20;;;3.77;;
4961;SDS011;2496;52.468;13.342;2023-07-31T08:14:11;5.60;;;3.60;;
4961;SDS011;2496;52.468;13.342;2023-07-31T08:16:38;4.50;;;2.93;;
4961;SDS011;2496;52.468;13.342;2023-07-31T08:19:07;7.10;;;2.60;;
4961;SDS011;2496;52.468;13.342;2023-07-31T08:21:34;8.13;;;3.10;;
4961;SDS011;2496;52.468;13.342;2023-07-31T08:24:01;4.03;;;2.97;;
4961;SDS011;2496;52.468;13.342;2023-07-31T08:26:28;6.00;;;3.33;;
4961;SDS011;2496;52.468;13.342;2023-07-31T08:28:55;4.03;;;3.30;;
4961;SDS011;2496;52.468;13.342;2023-07-31T08:31:22;4.60;;;3.40;;
4961;SDS011;2496;52.468;13.342;2023-07-31T08:33:49;5.83;;;3.43;;
4961;SDS011;2496;52.468;13.342;2023-07-31T08:36:18;11.80;;;3.50;;
4961;SDS011;2496;52.468;13.342;2023-07-31T08:38:45;6.07;;;3.43;;
4961;SDS011;2496;52.468;13.342;2023-07-31T08:41:15;5.30;;;2.90;;
4961;SDS011;2496;52.468;13.342;2023-07-31T08:43:43;3.83;;;3.33;;
4961;SDS011;2496;52.468;13.342;2023-07-31T08:46:11;4.80;;;3.00;;
4961;SDS011;2496;52.468;13.342;2023-07-31T08:48:39;5.20;;;3.57;;
4961;SDS011;2496;52.468;13.342;2023-07-31T08:51:09;9.53;;;3.40;;
4961;SDS011;2496;52.468;13.342;2023-07-31T08:53:37;5.10;;;3.30;;
4961;SDS011;2496;52.468;13.342;2023-07-31T08:56:04;4.70;;;3.23;;
4961;SDS011;2496;52.468;13.342;2023-07-31T08:58:33;5.80;;;2.90;;
4961;SDS011;2496;52.468;13.342;2023-07-31T09:01:03;8.90;;;3.70;;
4961;SDS011;2496;52.468;13.342;2023-07-31T09:03:33;5.90;;;2.80;;
4961;SDS011;2496;52.468;13.342;2023-07-31T09:06:02;3.93;;;2.90;;
4961;SDS011;2496;52.468;13.342;2023-07-31T09:08:31;6.27;;;4.00;;
4961;SDS011;2496;52.468;13.342;2023-07-31T09:11:00;3.30;;;2.57;;
4961;SDS011;2496;52.468;13.342;2023-07-31T09:13:29;3.50;;;2.10;;
4961;SDS011;2496;52.468;13.342;2023-07-31T09:15:57;4.10;;;3.20;;
4961;SDS011;2496;52.468;13.342;2023-07-31T09:18:24;3.77;;;2.57;;
4961;SDS011;2496;52.468;13.342;2023-07-31T09:21:00;5.80;;;3.20;;
4961;SDS011;2496;52.468;13.342;2023-07-31T09:23:39;2.50;;;2.30;;
4961;SDS011;2496;52.468;13.342;2023-07-31T09:26:08;4.10;;;3.50;;
4961;SDS011;2496;52.468;13.342;2023-07-31T09:28:36;3.83;;;2.33;;
4961;SDS011;2496;52.468;13.342;2023-07-31T09:31:03;3.50;;;2.17;;
4961;SDS011;2496;52.468;13.342;2023-07-31T09:33:30;3.00;;;2.50;;
4961;SDS011;2496;52.468;13.342;2023-07-31T09:35:58;6.57;;;3.73;;
4961;SDS011;2496;52.468;13.342;2023-07-31T09:38:26;3.77;;;3.00;;
4961;SDS011;2496;52.468;13.342;2023-07-31T09:40:53;4.50;;;3.30;;
4961;SDS011;2496;52.468;13.342;2023-07-31T09:43:22;6.90;;;2.30;;
4961;SDS011;2496;52.468;13.342;2023-07-31T09:45:54;3.20;;;2.03;;
4961;SDS011;2496;52.468;13.342;2023-07-31T09:48:22;3.00;;;2.07;;
4961;SDS011;2496;52.468;13.342;2023-07-31T09:50:52;2.03;;;1.57;;
4961;SDS011;2496;52.468;13.342;2023-07-31T09:53:20;2.23;;;1.60;;
4961;SDS011;2496;52.468;13.342;2023-07-31T09:55:56;2.27;;;1.90;;
4961;SDS011;2496;52.468;13.342;2023-07-31T09:58:27;4.30;;;2.60;;
4961;SDS011;2496;52.468;13.342;2023-07-31T10:00:55;5.53;;;2.17;;
4961;SDS011;2496;52.468;13.342;2023-07-31T10:03:24;3.27;;;2.97;;
4961;SDS011;2496;52.468;13.342;2023-07-31T10:05:52;5.37;;;3.03;;
4961;SDS011;2496;52.468;13.342;2023-07-31T10:08:21;11.13;;;5.00;;
4961;SDS011;2496;52.468;13.342;2023-07-31T10:10:55;6.07;;;2.83;;
4961;SDS011;2496;52.468;13.342;2023-07-31T10:13:26;6.20;;;3.87;;
4961;SDS011;2496;52.468;13.342;2023-07-31T10:15:54;4.20;;;3.23;;
4961;SDS011;2496;52.468;13.342;2023-07-31T10:18:25;13.27;;;3.60;;
4961;SDS011;2496;52.468;13.342;2023-07-31T10:20:53;8.73;;;4.30;;
4961;SDS011;2496;52.468;13.342;2023-07-31T10:23:21;7.00;;;4.47;;
4961;SDS011;2496;52.468;13.342;2023-07-31T10:25:50;8.77;;;4.67;;
4961;SDS011;2496;52.468;13.342;2023-07-31T10:28:19;6.40;;;4.40;;
4961;SDS011;2496;52.468;13.342;2023-07-31T10:30:48;5.80;;;4.90;;
4961;SDS011;2496;52.468;13.342;2023-07-31T10:33:17;14.70;;;7.50;;
4961;SDS011;2496;52.468;13.342;2023-07-31T10:35:44;7.00;;;4.80;;
4961;SDS011;2496;52.468;13.342;2023-07-31T10:38:13;9.37;;;4.37;;
4961;SDS011;2496;52.468;13.342;2023-07-31T10:40:40;22.53;;;4.87;;
4961;SDS011;2496;52.468;13.342;2023-07-31T10:43:07;10.50;;;5.93;;
4961;SDS011;2496;52.468;13.342;2023-07-31T10:45:36;17.53;;;4.67;;
4961;SDS011;2496;52.468;13.342;2023-07-31T10:48:06;7.57;;;4.00;;
4961;SDS011;2496;52.468;13.342;2023-07-31T10:50:38;13.20;;;4.30;;
4961;SDS011;2496;52.468;13.342;2023-07-31T10:53:22;9.80;;;4.80;;
4961;SDS011;2496;52.468;13.342;2023-07-31T10:55:49;6.20;;;4.37;;
4961;SDS011;2496;52.468;13.342;2023-07-31T10:58:18;15.63;;;4.97;;
4961;SDS011;2496;52.468;13.342;2023-07-31T11:00:46;7.20;;;4.20;;
4961;SDS011;2496;52.468;13.342;2023-07-31T11:03:15;9.50;;;3.53;;
4961;SDS011;2496;52.468;13.342;2023-07-31T11:05:44;8.60;;;4.53;;
4961;SDS011;2496;52.468;13.342;2023-07-31T11:08:15;6.60;;;4.00;;
4961;SDS011;2496;52.468;13.342;2023-07-31T11:10:45;5.60;;;3.70;;
4961;SDS011;2496;52.468;13.342;2023-07-31T11:13:12;8.90;;;4.20;;
4961;SDS011;2496;52.468;13.342;2023-07-31T11:15:40;10.27;;;3.93;;
4961;SDS011;2496;52.468;13.342;2023-07-31T11:18:07;6.43;;;3.53;;
4961;SDS011;2496;52.468;13.342;2023-07-31T11:20:37;8.57;;;3.77;;
4961;SDS011;2496;52.468;13.342;2023-07-31T11:23:08;4.00;;;2.93;;
4961;SDS011;2496;52.468;13.342;2023-07-31T11:25:37;5.60;;;3.33;;
4961;SDS011;2496;52.468;13.342;2023-07-31T11:28:08;7.40;;;3.50;;
4961;SDS011;2496;52.468;13.342;2023-07-31T11:30:36;6.07;;;3.80;;
4961;SDS011;2496;52.468;13.342;2023-07-31T11:33:04;6.60;;;3.93;;
4961;SDS011;2496;52.468;13.342;2023-07-31T11:35:32;9.60;;;4.20;;
4961;SDS011;2496;52.468;13.342;2023-07-31T11:38:01;7.93;;;5.37;;
4961;SDS011;2496;52.468;13.342;2023-07-31T11:40:29;5.63;;;4.57;;
4961;SDS011;2496;52.468;13.342;2023-07-31T11:42:56;7.97;;;4.50;;
4961;SDS011;2496;52.468;13.342;2023-07-31T11:45:26;4.70;;;3.40;;
4961;SDS011;2496;52.468;13.342;2023-07-31T11:47:54;5.50;;;3.97;;
4961;SDS011;2496;52.468;13.342;2023-07-31T11:50:22;4.87;;;3.27;;
4961;SDS011;2496;52.468;13.342;2023-07-31T11:52:51;6.03;;;4.20;;
4961;SDS011;2496;52.468;13.342;2023-07-31T11:55:24;3.97;;;3.03;;
4961;SDS011;2496;52.468;13.342;2023-07-31T11:57:52;9.27;;;3.90;;
4961;SDS011;2496;52.468;13.342;2023-07-31T12:00:22;8.30;;;4.00;;
4961;SDS011;2496;52.468;13.342;2023-07-31T12:02:50;4.10;;;3.33;;
4961;SDS011;2496;52.468;13.342;2023-07-31T12:05:17;7.30;;;4.13;;
4961;SDS011;2496;52.468;13.342;2023-07-31T12:07:48;5.63;;;3.27;;
4961;SDS011;2496;52.468;13.342;2023-07-31T12:10:24;8.30;;;3.60;;
4961;SDS011;2496;52.468;13.342;2023-07-31T12:12:59;15.73;;;4.30;;
4961;SDS011;2496;52.468;13.342;2023-07-31T12:15:37;7.23;;;4.10;;
4961;SDS011;2496;52.468;13.342;2023-07-31T12:18:05;6.03;;;3.20;;
4961;SDS011;2496;52.468;13.342;2023-07-31T12:20:33;6.27;;;3.70;;
4961;SDS011;2496;52.468;13.342;2023-07-31T12:23:01;7.60;;;3.70;;
4961;SDS011;2496;52.468;13.342;2023-07-31T12:25:30;6.67;;;3.63;;
4961;SDS011;2496;52.468;13.342;2023-07-31T12:28:03;9.40;;;4.10;;
4961;SDS011;2496;52.468;13.342;2023-07-31T12:30:32;6.73;;;3.00;;
4961;SDS011;2496;52.468;13.342;2023-07-31T12:33:03;9.50;;;3.70;;
4961;SDS011;2496;52.468;13.342;2023-07-31T12:35:40;7.80;;;3.50;;
4961;SDS011;2496;52.468;13.342;2023-07-31T12:38:09;5.30;;;3.20;;
4961;SDS011;2496;52.468;13.342;2023-07-31T12:40:38;5.10;;;3.57;;
4961;SDS011;2496;52.468;13.342;2023-07-31T12:43:06;13.93;;;3.27;;
4961;SDS011;2496;52.468;13.342;2023-07-31T12:45:34;9.07;;;3.50;;
4961;SDS011;2496;52.468;13.342;2023-07-31T12:48:01;5.20;;;3.80;;
4961;SDS011;2496;52.468;13.342;2023-07-31T12:50:28;9.20;;;4.43;;
4961;SDS011;2496;52.468;13.342;2023-07-31T12:52:56;5.70;;;2.60;;
4961;SDS011;2496;52.468;13.342;2023-07-31T12:55:23;6.43;;;3.50;;
4961;SDS011;2496;52.468;13.342;2023-07-31T12:57:52;9.10;;;4.63;;
4961;SDS011;2496;52.468;13.342;2023-07-31T13:00:19;4.10;;;3.10;;
4961;SDS011;2496;52.468;13.342;2023-07-31T13:02:46;3.13;;;2.70;;
4961;SDS011;2496;52.468;13.342;2023-07-31T13:05:13;5.63;;;3.27;;
4961;SDS011;2496;52.468;13.342;2023-07-31T13:07:40;4.23;;;2.80;;
4961;SDS011;2496;52.468;13.342;2023-07-31T13:10:07;5.53;;;2.97;;
4961;SDS011;2496;52.468;13.342;2023-07-31T13:12:35;4.20;;;3.30;;
4961;SDS011;2496;52.468;13.342;2023-07-31T13:15:03;8.27;;;3.90;;
4961;SDS011;2496;52.468;13.342;2023-07-31T13:17:31;3.60;;;2.90;;
4961;SDS011;2496;52.468;13.342;2023-07-31T13:19:58;5.83;;;3.70;;
4961;SDS011;2496;52.468;13.342;2023-07-31T13:22:26;6.83;;;4.13;;
4961;SDS011;2496;52.468;13.342;2023-07-31T13:24:53;3.03;;;2.50;;
4961;SDS011;2496;52.468;13.342;2023-07-31T13:27:20;8.37;;;3.10;;
4961;SDS011;2496;52.468;13.342;2023-07-31T13:29:47;9.10;;;3.80;;
4961;SDS011;2496;52.468;13.342;2023-07-31T13:32:16;3.70;;;3.20;;
4961;SDS011;2496;52.468;13.342;2023-07-31T13:34:44;9.13;;;3.23;;
4961;SDS011;2496;52.468;13.342;2023-07-31T13:37:12;7.40;;;3.37;;
4961;SDS011;2496;52.468;13.342;2023-07-31T13:39:39;9.50;;;3.03;;
4961;SDS011;2496;52.468;13.342;2023-07-31T13:42:06;4.73;;;2.70;;
4961;SDS011;2496;52.468;13.342;2023-07-31T13:44:36;7.50;;;3.50;;
4961;SDS011;2496;52.468;13.342;2023-07-31T13:47:03;7.70;;;5.20;;
4961;SDS011;2496;52.468;13.342;2023-07-31T13:49:32;8.33;;;4.03;;
4961;SDS011;2496;52.468;13.342;2023-07-31T13:52:00;9.13;;;3.80;;
4961;SDS011;2496;52.468;13.342;2023-07-31T13:54:26;9.73;;;3.90;;
4961;SDS011;2496;52.468;13.342;2023-07-31T13:56:53;7.20;;;3.70;;
4961;SDS011;2496;52.468;13.342;2023-07-31T13:59:20;9.87;;;3.73;;
4961;SDS011;2496;52.468;13.342;2023-07-31T14:01:48;15.23;;;3.77;;
4961;SDS011;2496;52.468;13.342;2023-07-31T14:04:16;8.20;;;3.83;;
4961;SDS011;2496;52.468;13.342;2023-07-31T14:06:45;6.27;;;3.63;;
4961;SDS011;2496;52.468;13.342;2023-07-31T14:09:15;6.97;;;3.30;;
4961;SDS011;2496;52.468;13.342;2023-07-31T14:11:42;6.57;;;3.47;;
4961;SDS011;2496;52.468;13.342;2023-07-31T14:14:09;5.33;;;3.70;;
4961;SDS011;2496;52.468;13.342;2023-07-31T14:16:37;4.73;;;3.27;;
4961;SDS011;2496;52.468;13.342;2023-07-31T14:19:04;4.13;;;3.53;;
4961;SDS011;2496;52.468;13.342;2023-07-31T14:21:32;8.13;;;3.77;;
4961;SDS011;2496;52.468;13.342;2023-07-31T14:24:00;8.47;;;3.60;;
4961;SDS011;2496;52.468;13.342;2023-07-31T14:26:27;10.07;;;3.60;;
4961;SDS011;2496;52.468;13.342;2023-07-31T14:28:54;6.23;;;3.40;;
4961;SDS011;2496;52.468;13.342;2023-07-31T14:31:21;10.20;;;8.73;;
4961;SDS011;2496;52.468;13.342;2023-07-31T14:33:49;7.20;;;3.30;;
4961;SDS011;2496;52.468;13.342;2023-07-31T14:36:15;6.00;;;3.50;;
4961;SDS011;2496;52.468;13.342;2023-07-31T14:38:42;5.73;;;3.43;;
4961;SDS011;2496;52.468;13.342;2023-07-31T14:41:11;8.17;;;3.30;;
4961;SDS011;2496;52.468;13.342;2023-07-31T14:43:38;4.87;;;3.40;;
4961;SDS011;2496;52.468;13.342;2023-07-31T14:46:05;8.50;;;4.67;;
4961;SDS011;2496;52.468;13.342;2023-07-31T14:48:32;11.07;;;5.80;;
4961;SDS011;2496;52.468;13.342;2023-07-31T14:50:59;8.80;;;3.70;;
4961;SDS011;2496;52.468;13.342;2023-07-31T14:53:26;5.87;;;3.30;;
4961;SDS011;2496;52.468;13.342;2023-07-31T14:55:53;5.23;;;3.50;;
4961;SDS011;2496;52.468;13.342;2023-07-31T14:58:22;5.87;;;3.77;;
4961;SDS011;2496;52.468;13.342;2023-07-31T15:00:49;9.13;;;3.60;;
4961;SDS011;2496;52.468;13.342;2023-07-31T15:03:16;6.30;;;3.97;;
4961;SDS011;2496;52.468;13.342;2023-07-31T15:05:43;7.37;;;5.47;;